Time;durP1;ratioP1;P1;durP2;ratioP2;P2;SDS_P1;SDS_P2;PMS_P1;PMS_P2;Temp;Humidity;BMP_temperature;BMP_pressure;BME280_temperature;BME280_humidity;BME280_pressure;Samples;Min_cycle;Max_cycle;Signal;HPM_P1;HPM_P2
2022/04/16 00:01:49;;;;;;;7.07;4.57;;;9.70;99.90;;;;;;5054118;28;20021;-82
2022/04/16 00:04:15;;;;;;;7.55;4.85;;;9.70;99.90;;;;;;5054044;28;20025;-83
2022/04/16 00:06:41;;;;;;;8.27;5.70;;;9.70;99.90;;;;;;5053733;28;20075;-83
2022/04/16 00:09:07;;;;;;;9.18;5.65;;;9.70;99.90;;;;;;5052517;28;20393;-83
2022/04/16 00:11:33;;;;;;;9.45;5.57;;;9.70;99.90;;;;;;5054009;28;20055;-83
2022/04/16 00:13:59;;;;;;;7.32;4.85;;;9.70;99.90;;;;;;5052230;28;20025;-83
2022/04/16 00:16:25;;;;;;;7.45;5.25;;;9.70;99.90;;;;;;5053874;28;20405;-83
2022/04/16 00:18:50;;;;;;;8.95;5.22;;;9.70;99.90;;;;;;5053444;28;20036;-83
2022/04/16 00:21:17;;;;;;;8.20;5.00;;;9.60;99.90;;;;;;5052250;28;20025;-83
2022/04/16 00:23:43;;;;;;;7.97;5.63;;;9.60;99.90;;;;;;5054140;28;20021;-83
2022/04/16 00:26:12;;;;;;;9.30;5.50;;;9.50;99.90;;;;;;5053441;28;20021;-83
2022/04/16 00:28:38;;;;;;;8.38;5.65;;;9.50;99.90;;;;;;5053456;28;20024;-83
2022/04/16 00:31:04;;;;;;;7.32;4.93;;;9.50;99.90;;;;;;5053408;28;20024;-83
2022/04/16 00:33:31;;;;;;;7.85;5.38;;;9.50;99.90;;;;;;5052877;28;20028;-83
2022/04/16 00:35:57;;;;;;;8.32;5.40;;;9.50;99.90;;;;;;5052412;28;20029;-83
2022/04/16 00:38:23;;;;;;;8.00;5.20;;;9.50;99.90;;;;;;5053652;28;20021;-83
2022/04/16 00:40:48;;;;;;;8.18;5.47;;;9.50;99.90;;;;;;5051883;28;20481;-83
2022/04/16 00:43:25;;;;;;;8.27;5.25;;;9.50;99.90;;;;;;5053257;28;20071;-83
2022/04/16 00:45:52;;;;;;;8.45;5.05;;;9.50;99.90;;;;;;5053150;28;20111;-82
2022/04/16 00:48:19;;;;;;;7.97;5.20;;;9.50;99.90;;;;;;5051902;28;20029;-83
2022/04/16 00:50:45;;;;;;;6.75;4.28;;;9.50;99.90;;;;;;5051919;28;20025;-83
2022/04/16 00:53:12;;;;;;;6.88;4.30;;;9.50;99.90;;;;;;5051831;28;20032;-83
2022/04/16 00:55:38;;;;;;;10.63;4.88;;;9.50;99.90;;;;;;5053020;28;20017;-83
2022/04/16 00:58:04;;;;;;;8.32;4.47;;;9.50;99.90;;;;;;5053073;28;20051;-83
2022/04/16 01:00:29;;;;;;;7.65;4.43;;;9.50;99.90;;;;;;5051773;28;20074;-83
2022/04/16 01:02:56;;;;;;;7.00;4.35;;;9.50;99.90;;;;;;5051822;28;20086;-83
2022/04/16 01:05:22;;;;;;;7.65;4.30;;;9.50;99.90;;;;;;5051679;28;20036;-83
2022/04/16 01:07:53;;;;;;;6.40;4.47;;;9.50;99.90;;;;;;5052923;28;20496;-83
2022/04/16 01:10:26;;;;;;;6.10;4.60;;;9.50;99.90;;;;;;5053649;28;20392;-83
2022/04/16 01:13:12;;;;;;;6.63;4.78;;;9.50;99.90;;;;;;5057137;28;20032;-83
2022/04/16 01:15:39;;;;;;;7.40;4.82;;;9.50;99.90;;;;;;5057055;28;20064;-83
2022/04/16 01:18:05;;;;;;;8.15;4.38;;;9.50;99.90;;;;;;5055476;28;20029;-83
2022/04/16 01:20:36;;;;;;;9.20;5.22;;;9.50;99.90;;;;;;5056773;28;20469;-82
2022/04/16 01:23:03;;;;;;;10.75;6.93;;;9.50;99.90;;;;;;5057018;28;20446;-82
2022/04/16 01:25:32;;;;;;;7.50;4.97;;;9.50;99.90;;;;;;5056623;28;20079;-82
2022/04/16 01:27:58;;;;;;;6.72;5.05;;;9.50;99.90;;;;;;5056915;28;20090;-83
2022/04/16 01:30:24;;;;;;;7.75;5.07;;;9.40;99.90;;;;;;5056602;28;20049;-83
2022/04/16 01:32:50;;;;;;;7.47;4.47;;;9.40;99.90;;;;;;5056443;28;20080;-83
2022/04/16 01:35:17;;;;;;;8.15;5.03;;;9.40;99.90;;;;;;5056714;28;20028;-83
2022/04/16 01:37:42;;;;;;;7.82;5.65;;;9.40;99.90;;;;;;5055419;28;20021;-83
2022/04/16 01:40:10;;;;;;;6.97;4.78;;;9.40;99.90;;;;;;5054951;28;20079;-83
2022/04/16 01:42:37;;;;;;;7.25;4.70;;;9.40;99.90;;;;;;5055031;28;20039;-83
2022/04/16 01:45:09;;;;;;;6.90;4.22;;;9.50;99.90;;;;;;5056434;28;20025;-83
2022/04/16 01:47:36;;;;;;;6.47;4.53;;;9.50;99.90;;;;;;5056412;28;20431;-83
2022/04/16 01:50:04;;;;;;;7.15;4.45;;;9.50;99.90;;;;;;5054871;28;20393;-83
2022/04/16 01:52:29;;;;;;;7.00;4.60;;;9.50;99.90;;;;;;5054824;28;20186;-83
2022/04/16 01:54:55;;;;;;;6.72;4.35;;;9.50;99.90;;;;;;5056111;28;20501;-83
2022/04/16 01:57:20;;;;;;;6.32;4.93;;;9.50;99.90;;;;;;5054891;28;20028;-83
2022/04/16 01:59:49;;;;;;;7.05;4.85;;;9.50;99.90;;;;;;5054766;28;20500;-83
2022/04/16 02:02:16;;;;;;;6.07;4.18;;;9.50;99.90;;;;;;5054636;28;20028;-83
2022/04/16 02:04:43;;;;;;;6.05;4.13;;;9.50;99.90;;;;;;5054675;28;20033;-82
2022/04/16 02:07:09;;;;;;;9.63;4.88;;;9.60;99.90;;;;;;5054586;28;20025;-82
2022/04/16 02:09:34;;;;;;;8.75;4.85;;;9.60;99.90;;;;;;5054528;28;20115;-82
2022/04/16 02:12:00;;;;;;;7.30;4.40;;;9.50;99.90;;;;;;5055678;28;20025;-82
2022/04/16 02:14:26;;;;;;;8.40;4.95;;;9.50;99.90;;;;;;5054670;28;20052;-82
2022/04/16 02:16:51;;;;;;;7.68;4.13;;;9.50;99.90;;;;;;5055997;28;20028;-82
2022/04/16 02:19:17;;;;;;;8.02;5.10;;;9.40;99.90;;;;;;5054383;28;20029;-82
2022/04/16 02:21:46;;;;;;;7.47;4.10;;;9.40;99.90;;;;;;5054517;28;20485;-82
2022/04/16 02:24:13;;;;;;;7.63;4.63;;;9.50;99.90;;;;;;5054275;28;20036;-82
2022/04/16 02:26:42;;;;;;;8.23;4.72;;;9.50;99.90;;;;;;5055463;28;20033;-82
2022/04/16 02:29:10;;;;;;;8.43;4.53;;;9.40;99.90;;;;;;5055476;28;20021;-82
2022/04/16 02:31:37;;;;;;;8.07;5.50;;;9.30;99.90;;;;;;5055542;28;20021;-82
2022/04/16 02:34:05;;;;;;;7.88;4.70;;;9.30;99.90;;;;;;5055507;28;20021;-82
2022/04/16 02:36:34;;;;;;;8.98;4.63;;;9.20;99.90;;;;;;5055494;28;20159;-82
2022/04/16 02:39:00;;;;;;;7.93;4.80;;;9.20;99.90;;;;;;5054025;28;20029;-82
2022/04/16 02:41:27;;;;;;;6.25;4.25;;;9.10;99.90;;;;;;5055323;28;20107;-82
2022/04/16 02:43:58;;;;;;;7.70;4.70;;;9.10;99.90;;;;;;5055502;28;20040;-82
2022/04/16 02:49:09;;;;;;;5.95;4.15;;;9.10;99.90;;;;;;5055161;28;20048;-82
2022/04/16 02:51:35;;;;;;;7.60;4.75;;;9.20;99.90;;;;;;5053984;28;20116;-82
2022/04/16 02:54:01;;;;;;;7.28;4.13;;;9.20;99.90;;;;;;5053727;28;20116;-82
2022/04/16 02:56:26;;;;;;;5.80;4.00;;;9.20;99.90;;;;;;5055241;28;20024;-82
2022/04/16 02:58:52;;;;;;;6.65;4.40;;;9.10;99.90;;;;;;5055213;28;20017;-82
2022/04/16 03:01:18;;;;;;;5.93;3.85;;;9.10;99.90;;;;;;5054929;28;20035;-82
2022/04/16 03:03:43;;;;;;;5.55;3.70;;;9.10;99.90;;;;;;5054785;28;20473;-82
2022/04/16 03:06:09;;;;;;;6.90;3.85;;;9.10;99.90;;;;;;5055138;28;20060;-82
2022/04/16 03:08:35;;;;;;;6.15;3.55;;;9.10;99.90;;;;;;5054773;28;20063;-82
2022/04/16 03:11:04;;;;;;;7.68;4.53;;;9.20;99.90;;;;;;5054974;28;20025;-82
2022/04/16 03:13:30;;;;;;;9.45;4.75;;;9.20;99.90;;;;;;5054985;28;20018;-82
2022/04/16 03:18:39;;;;;;;7.75;4.40;;;9.20;99.90;;;;;;5055180;28;20032;-83
2022/04/16 03:21:06;;;;;;;10.00;4.88;;;9.20;99.90;;;;;;5054479;28;20389;-83
2022/04/16 03:23:31;;;;;;;6.90;3.90;;;9.10;99.90;;;;;;5054494;28;20021;-83
2022/04/16 03:26:00;;;;;;;7.60;4.03;;;9.10;99.90;;;;;;5054600;28;20059;-82
2022/04/16 03:28:26;;;;;;;7.82;4.57;;;9.10;99.90;;;;;;5054789;28;20066;-82
2022/04/16 03:30:53;;;;;;;6.70;4.40;;;9.10;99.90;;;;;;5053105;28;20021;-83
2022/04/16 03:33:19;;;;;;;5.10;3.60;;;9.10;99.90;;;;;;5054205;28;20025;-82
2022/04/16 03:35:45;;;;;;;5.50;3.75;;;9.10;99.90;;;;;;5054258;28;20497;-82
2022/04/16 03:38:11;;;;;;;9.25;4.45;;;9.10;99.90;;;;;;5053062;28;20020;-82
2022/04/16 03:40:36;;;;;;;6.65;4.15;;;9.00;99.90;;;;;;5054203;28;20511;-83
2022/04/16 03:43:03;;;;;;;11.55;4.70;;;8.90;99.90;;;;;;5054254;28;20100;-83
2022/04/16 03:45:30;;;;;;;7.30;4.07;;;9.00;99.90;;;;;;5053832;28;20116;-83
2022/04/16 03:47:58;;;;;;;5.82;3.90;;;8.90;99.90;;;;;;5054686;28;20439;-83
2022/04/16 03:50:26;;;;;;;7.28;4.00;;;8.90;99.90;;;;;;5054099;28;20108;-83
2022/04/16 03:52:53;;;;;;;5.65;3.22;;;8.90;99.90;;;;;;5054072;28;20424;-83
2022/04/16 04:00:50;;;;;;;11.02;5.35;;;8.90;99.90;;;;;;5054686;28;20401;-82
2022/04/16 04:03:15;;;;;;;7.95;4.95;;;8.90;99.90;;;;;;5052658;28;20021;-83
2022/04/16 04:05:42;;;;;;;7.55;4.50;;;8.80;99.90;;;;;;5053712;28;20104;-83
2022/04/16 04:08:09;;;;;;;7.88;4.43;;;8.70;99.90;;;;;;5053645;28;20525;-83
2022/04/16 04:10:36;;;;;;;5.55;4.28;;;8.70;99.90;;;;;;5053969;28;20415;-83
2022/04/16 04:13:02;;;;;;;7.00;5.07;;;8.60;99.90;;;;;;5052347;28;20025;-79
2022/04/16 04:15:29;;;;;;;6.53;4.68;;;8.60;99.90;;;;;;5053582;28;20112;-79
2022/04/16 04:18:00;;;;;;;6.80;4.40;;;8.50;99.90;;;;;;5053574;28;20388;-79
2022/04/16 04:20:28;;;;;;;6.43;4.30;;;8.60;99.90;;;;;;5052501;28;20210;-79
2022/04/16 04:22:54;;;;;;;9.05;4.90;;;8.60;99.90;;;;;;5052488;28;20017;-79
2022/04/16 04:25:20;;;;;;;6.55;4.03;;;8.60;99.90;;;;;;5053798;28;20029;-79
2022/04/16 04:27:46;;;;;;;6.57;4.28;;;8.60;99.90;;;;;;5052189;28;20029;-79
2022/04/16 04:30:12;;;;;;;6.07;3.95;;;8.60;99.90;;;;;;5053404;28;20020;-79
2022/04/16 04:32:38;;;;;;;8.25;4.85;;;8.60;99.90;;;;;;5052757;28;20029;-79
2022/04/16 04:35:08;;;;;;;11.07;5.38;;;8.70;99.90;;;;;;5053142;28;20048;-79
2022/04/16 04:37:34;;;;;;;8.68;5.30;;;8.60;99.90;;;;;;5053204;28;20025;-79
2022/04/16 04:40:00;;;;;;;8.25;5.32;;;8.50;99.90;;;;;;5051859;28;20033;-79
2022/04/16 04:42:31;;;;;;;9.25;6.00;;;8.50;99.90;;;;;;5052263;28;20187;-79
2022/04/16 04:44:59;;;;;;;9.45;5.22;;;8.40;99.90;;;;;;5053454;28;20060;-79
2022/04/16 04:47:25;;;;;;;8.65;5.32;;;8.40;99.90;;;;;;5056366;28;20029;-79
2022/04/16 04:49:50;;;;;;;8.10;5.25;;;8.30;99.90;;;;;;5056935;28;20491;-79
2022/04/16 04:52:26;;;;;;;9.02;5.82;;;8.30;99.90;;;;;;5057107;28;20548;-79
2022/04/16 04:54:59;;;;;;;10.35;5.45;;;8.30;99.90;;;;;;5057393;28;20100;-79
2022/04/16 04:57:26;;;;;;;10.10;5.20;;;8.30;99.90;;;;;;5057355;28;20017;-79
2022/04/16 04:59:51;;;;;;;8.45;5.03;;;8.30;99.90;;;;;;5056362;28;20376;-79
2022/04/16 05:02:17;;;;;;;7.55;4.85;;;8.30;99.90;;;;;;5056673;28;20033;-79
2022/04/16 05:04:43;;;;;;;7.80;5.57;;;8.30;99.90;;;;;;5057202;28;20177;-79
2022/04/16 05:07:09;;;;;;;8.48;6.68;;;8.30;99.90;;;;;;5057001;28;20032;-79
2022/04/16 05:09:36;;;;;;;8.77;5.82;;;8.30;99.90;;;;;;5056644;28;20029;-79
2022/04/16 05:12:03;;;;;;;11.27;5.88;;;8.30;99.90;;;;;;5057060;28;20029;-79
2022/04/16 05:14:28;;;;;;;7.53;5.10;;;8.30;99.90;;;;;;5055724;28;20032;-79
2022/04/16 05:16:54;;;;;;;8.13;5.47;;;8.30;99.90;;;;;;5057026;28;20017;-79
2022/04/16 05:19:20;;;;;;;7.88;5.13;;;8.30;99.90;;;;;;5056513;28;20489;-79
2022/04/16 05:21:45;;;;;;;7.63;5.03;;;8.30;99.90;;;;;;5057046;28;20454;-79
2022/04/16 05:24:11;;;;;;;7.63;3.95;;;8.40;99.90;;;;;;5057168;28;20040;-79
2022/04/16 05:26:39;;;;;;;8.80;5.65;;;8.40;99.90;;;;;;5055867;28;20029;-79
2022/04/16 05:29:06;;;;;;;8.07;5.50;;;8.40;99.90;;;;;;5056725;28;20021;-79
2022/04/16 05:31:32;;;;;;;8.35;5.25;;;8.40;99.90;;;;;;5049316;28;20017;-79
2022/04/16 05:36:43;;;;;;;8.43;5.43;;;8.50;99.90;;;;;;5052154;28;20031;-79
2022/04/16 05:39:09;;;;;;;8.60;5.20;;;8.50;99.90;;;;;;5056361;28;20032;-79
2022/04/16 05:41:36;;;;;;;9.82;5.35;;;8.50;99.90;;;;;;5056341;28;20017;-78
2022/04/16 05:44:03;;;;;;;10.15;5.30;;;8.50;99.90;;;;;;5056234;28;20029;-79
2022/04/16 05:46:29;;;;;;;9.50;5.43;;;8.50;99.90;;;;;;5056344;28;20025;-79
2022/04/16 05:48:54;;;;;;;7.93;4.90;;;8.50;99.90;;;;;;5056416;28;20036;-79
2022/04/16 05:51:21;;;;;;;8.10;4.80;;;8.50;99.90;;;;;;5055077;28;20025;-79
2022/04/16 05:53:48;;;;;;;8.32;5.20;;;8.50;99.90;;;;;;5056300;28;20027;-78
2022/04/16 05:56:14;;;;;;;9.27;5.93;;;8.50;99.90;;;;;;5056462;28;20021;-79
2022/04/16 05:58:43;;;;;;;8.85;5.00;;;8.60;99.90;;;;;;5056278;28;20025;-79
2022/04/16 06:01:09;;;;;;;8.02;5.28;;;8.60;99.90;;;;;;5056490;28;20021;-79
2022/04/16 06:03:36;;;;;;;8.38;5.40;;;8.60;99.90;;;;;;5056579;28;20036;-80
2022/04/16 06:06:03;;;;;;;13.60;5.55;;;8.70;99.90;;;;;;5056170;28;20017;-79
2022/04/16 06:08:29;;;;;;;7.28;5.20;;;8.60;99.90;;;;;;5056298;28;20408;-79
2022/04/16 06:10:55;;;;;;;7.70;5.10;;;8.60;99.90;;;;;;5056322;28;20017;-79
2022/04/16 06:13:20;;;;;;;8.23;5.45;;;8.60;99.90;;;;;;5055981;28;20439;-79
2022/04/16 06:15:46;;;;;;;10.70;5.65;;;8.60;99.90;;;;;;5055796;28;20025;-79
2022/04/16 06:18:12;;;;;;;10.93;6.07;;;8.60;99.90;;;;;;5056259;28;20023;-79
2022/04/16 06:20:38;;;;;;;11.48;6.18;;;8.70;99.90;;;;;;5056280;28;20488;-79
2022/04/16 06:23:05;;;;;;;10.52;5.78;;;8.70;99.90;;;;;;5055994;28;20109;-78
2022/04/16 06:25:31;;;;;;;10.50;5.57;;;8.70;99.90;;;;;;5055946;28;20442;-78
2022/04/16 06:27:57;;;;;;;8.38;5.43;;;8.80;99.90;;;;;;5055751;28;20036;-79
2022/04/16 06:30:23;;;;;;;10.45;6.43;;;8.70;99.90;;;;;;5056067;28;20107;-79
2022/04/16 06:32:48;;;;;;;9.73;6.35;;;8.70;99.90;;;;;;5055633;28;20082;-78
2022/04/16 06:35:14;;;;;;;10.55;6.20;;;8.70;99.90;;;;;;5055763;28;20496;-78
2022/04/16 06:37:44;;;;;;;11.07;6.10;;;8.80;99.90;;;;;;5055819;28;20054;-78
2022/04/16 06:40:11;;;;;;;9.15;6.22;;;8.70;99.90;;;;;;5056347;28;20036;-78
2022/04/16 06:42:38;;;;;;;10.27;6.32;;;8.60;99.90;;;;;;5055250;28;20050;-78
2022/04/16 06:45:06;;;;;;;8.82;5.38;;;8.60;99.90;;;;;;5058503;28;20028;-78
2022/04/16 06:47:32;;;;;;;10.88;5.82;;;8.50;99.90;;;;;;5055293;28;20445;-78
2022/04/16 06:49:58;;;;;;;10.38;6.18;;;8.50;99.90;;;;;;5053896;28;20031;-78
2022/04/16 06:52:24;;;;;;;10.18;5.57;;;8.40;99.90;;;;;;5055125;28;20029;-78
2022/04/16 06:54:50;;;;;;;8.82;5.65;;;8.30;99.90;;;;;;5054091;28;20128;-78
2022/04/16 06:57:16;;;;;;;9.98;5.90;;;8.30;99.90;;;;;;5055445;28;20049;-78
2022/04/16 06:59:42;;;;;;;9.18;6.15;;;8.20;99.90;;;;;;5055269;28;20075;-78
2022/04/16 07:02:10;;;;;;;11.43;6.35;;;8.30;99.90;;;;;;5055216;28;20424;-78
2022/04/16 07:04:35;;;;;;;10.93;6.15;;;8.20;99.90;;;;;;5055469;28;20060;-78
2022/04/16 07:07:01;;;;;;;11.93;5.88;;;8.20;99.90;;;;;;5055196;28;20061;-78
2022/04/16 07:09:27;;;;;;;10.43;6.30;;;8.30;99.90;;;;;;5054917;28;20033;-78
2022/04/16 07:11:53;;;;;;;9.48;5.85;;;8.20;99.90;;;;;;5055153;28;20025;-78
2022/04/16 07:14:20;;;;;;;10.15;6.20;;;8.20;99.90;;;;;;5054937;28;20079;-78
2022/04/16 07:16:46;;;;;;;9.02;6.07;;;8.20;99.90;;;;;;5055048;28;20021;-78
2022/04/16 07:19:11;;;;;;;9.90;6.28;;;8.20;99.90;;;;;;5053831;28;20032;-78
2022/04/16 07:21:37;;;;;;;10.85;5.80;;;8.30;99.90;;;;;;5055229;28;20031;-78
2022/04/16 07:24:03;;;;;;;9.30;6.00;;;8.20;99.90;;;;;;5053792;28;20021;-78
2022/04/16 07:26:29;;;;;;;13.27;6.00;;;8.20;99.90;;;;;;5055042;28;20029;-78
2022/04/16 07:28:54;;;;;;;8.68;6.03;;;8.20;99.90;;;;;;5055096;28;20422;-78
2022/04/16 07:31:20;;;;;;;10.00;5.38;;;8.10;99.90;;;;;;5055115;28;20056;-78
2022/04/16 07:33:46;;;;;;;7.45;5.07;;;8.10;99.90;;;;;;5054752;28;20055;-78
2022/04/16 07:36:12;;;;;;;8.50;5.13;;;8.00;99.90;;;;;;5053349;28;20024;-78
2022/04/16 07:38:37;;;;;;;9.27;5.60;;;8.00;99.90;;;;;;5053688;28;20082;-78
2022/04/16 07:41:03;;;;;;;7.45;5.32;;;8.00;99.90;;;;;;5054885;28;20083;-78
2022/04/16 07:43:33;;;;;;;10.43;6.43;;;8.00;99.90;;;;;;5054700;28;20024;-78
2022/04/16 07:45:58;;;;;;;8.82;5.45;;;8.00;99.90;;;;;;5054768;28;20385;-78
2022/04/16 07:48:24;;;;;;;8.70;5.57;;;8.00;99.90;;;;;;5054635;28;20025;-78
2022/04/16 07:50:50;;;;;;;17.20;8.93;;;8.00;99.90;;;;;;5054366;28;20025;-78
2022/04/16 07:53:16;;;;;;;9.00;5.88;;;8.00;99.90;;;;;;5054661;28;20024;-78
2022/04/16 07:55:42;;;;;;;7.93;4.65;;;8.10;99.90;;;;;;5053298;28;20401;-78
2022/04/16 07:58:08;;;;;;;11.73;5.32;;;8.10;99.90;;;;;;5054912;28;20029;-78
2022/04/16 08:00:33;;;;;;;7.57;4.85;;;8.20;99.90;;;;;;5054731;28;20025;-78
2022/04/16 08:02:59;;;;;;;10.27;5.32;;;8.10;99.90;;;;;;5054796;28;20025;-78
2022/04/16 08:05:25;;;;;;;7.47;4.78;;;8.20;99.90;;;;;;5053314;28;20028;-78
2022/04/16 08:07:50;;;;;;;7.93;4.95;;;8.20;99.90;;;;;;5054204;28;20108;-79
2022/04/16 08:10:16;;;;;;;9.65;6.10;;;8.20;99.90;;;;;;5054247;28;20035;-79
2022/04/16 08:12:42;;;;;;;8.93;5.32;;;8.20;99.90;;;;;;5054424;28;20029;-78
2022/04/16 08:15:10;;;;;;;7.70;4.63;;;8.30;99.90;;;;;;5054571;28;20025;-79
2022/04/16 08:17:37;;;;;;;6.90;4.47;;;8.30;99.90;;;;;;5054708;28;20477;-78
2022/04/16 08:20:05;;;;;;;7.82;4.93;;;8.40;99.90;;;;;;5053503;28;20017;-78
2022/04/16 08:22:34;;;;;;;8.27;4.53;;;8.40;99.90;;;;;;5054107;28;20029;-78
2022/04/16 08:27:45;;;;;;;9.45;4.75;;;8.40;99.90;;;;;;5054071;28;20028;-78
2022/04/16 08:30:16;;;;;;;7.60;3.90;;;8.40;99.90;;;;;;5053944;28;20064;-78
2022/04/16 08:32:43;;;;;;;6.00;3.88;;;8.40;99.90;;;;;;5045620;28;20025;-78
2022/04/16 08:35:09;;;;;;;;;;;8.40;99.90;;;;;;5034018;28;20025;-78
2022/04/16 08:37:35;;;;;;;;;;;8.50;99.90;;;;;;5032808;28;19955;-78
2022/04/16 08:40:02;;;;;;;8.40;4.20;;;8.70;99.90;;;;;;5034249;28;20411;-78
2022/04/16 08:42:28;;;;;;;6.28;3.88;;;8.70;99.90;;;;;;5032990;28;20054;-78
2022/04/16 08:44:54;;;;;;;8.50;4.82;;;8.70;99.90;;;;;;5034584;28;20100;-78
2022/04/16 08:47:20;;;;;;;7.45;4.63;;;8.70;99.90;;;;;;5034142;28;20029;-78
2022/04/16 08:49:45;;;;;;;7.05;3.75;;;8.70;99.90;;;;;;5034273;28;20092;-78
2022/04/16 08:52:11;;;;;;;8.82;3.95;;;8.70;99.90;;;;;;5034099;28;20061;-78
2022/04/16 08:54:38;;;;;;;6.95;4.43;;;8.60;99.90;;;;;;5034183;28;20389;-78
2022/04/16 08:57:05;;;;;;;5.53;3.72;;;8.60;99.90;;;;;;5035061;28;20366;-78
2022/04/16 08:59:31;;;;;;;6.50;3.67;;;8.70;99.90;;;;;;5034353;28;20025;-78
2022/04/16 09:01:58;;;;;;;6.53;3.90;;;8.70;99.90;;;;;;5034093;28;20036;-78
2022/04/16 09:04:27;;;;;;;8.65;3.90;;;8.80;99.90;;;;;;5034251;28;20026;-78
2022/04/16 09:07:03;;;;;;;4.90;3.10;;;8.80;99.60;;;;;;5033990;28;20375;-78
2022/04/16 09:09:29;;;;;;;9.10;3.95;;;8.80;97.70;;;;;;5033982;28;20017;-78
2022/04/16 09:11:55;;;;;;;6.60;3.42;;;8.80;98.70;;;;;;5033736;28;20104;-78
2022/04/16 09:14:35;;;;;;;6.85;3.50;;;8.80;98.50;;;;;;5033799;28;20037;-78
2022/04/16 09:17:00;;;;;;;7.20;3.67;;;8.80;98.50;;;;;;5033816;28;20036;-78
2022/04/16 09:19:29;;;;;;;5.68;3.28;;;8.90;99.10;;;;;;5032889;28;20433;-78
2022/04/16 09:21:55;;;;;;;5.40;3.60;;;8.90;99.30;;;;;;5033893;28;20415;-78
2022/04/16 09:24:21;;;;;;;5.65;3.53;;;8.90;98.50;;;;;;5033790;28;20021;-78
2022/04/16 09:26:49;;;;;;;6.55;3.40;;;9.00;98.60;;;;;;5034887;28;20040;-78
2022/04/16 09:29:19;;;;;;;6.63;3.60;;;9.00;99.00;;;;;;5033009;28;20105;-78
2022/04/16 09:31:51;;;;;;;5.13;3.17;;;9.00;97.90;;;;;;5034642;28;20029;-78
2022/04/16 09:34:18;;;;;;;8.93;4.22;;;9.10;98.60;;;;;;5037500;28;20030;-78
2022/04/16 09:36:44;;;;;;;6.75;3.40;;;9.10;98.40;;;;;;5037542;28;20022;-78
2022/04/16 09:39:10;;;;;;;5.28;3.47;;;9.00;98.30;;;;;;5037408;28;20025;-78
2022/04/16 09:41:41;;;;;;;5.60;3.25;;;9.00;97.70;;;;;;5037983;28;20498;-78
2022/04/16 09:44:18;;;;;;;5.82;3.45;;;9.00;97.60;;;;;;5037036;28;20474;-78
2022/04/16 09:46:47;;;;;;;5.22;3.03;;;9.10;97.10;;;;;;5037343;28;20045;-78
2022/04/16 09:49:14;;;;;;;14.77;8.45;;;9.10;97.10;;;;;;5036010;28;20025;-78
2022/04/16 09:51:44;;;;;;;5.07;3.40;;;9.10;96.70;;;;;;5037370;28;20091;-78
2022/04/16 09:54:11;;;;;;;7.53;4.33;;;9.10;96.10;;;;;;5036689;28;20099;-78
2022/04/16 09:56:39;;;;;;;11.00;6.78;;;9.10;96.20;;;;;;5037325;28;20049;-78
2022/04/16 09:59:09;;;;;;;4.60;2.90;;;9.10;95.30;;;;;;5036563;28;20096;-78
2022/04/16 10:01:38;;;;;;;4.53;2.72;;;9.10;96.70;;;;;;5037515;28;20048;-78
2022/04/16 10:04:07;;;;;;;6.55;3.42;;;9.10;95.60;;;;;;5037062;28;20049;-78
2022/04/16 10:06:34;;;;;;;5.53;3.50;;;9.20;95.50;;;;;;5037956;28;20060;-78
2022/04/16 10:09:13;;;;;;;7.35;4.47;;;9.20;96.20;;;;;;5039009;28;20029;-79
2022/04/16 10:14:40;;;;;;;4.88;3.20;;;9.20;96.70;;;;;;5046929;28;20032;-78
2022/04/16 10:17:14;;;;;;;7.13;3.42;;;9.20;96.20;;;;;;5056207;28;20021;-79
2022/04/16 10:19:47;;;;;;;8.43;5.63;;;9.30;95.90;;;;;;5055713;28;20508;-78
2022/04/16 10:22:26;;;;;;;6.25;4.68;;;9.30;96.60;;;;;;5056048;28;20021;-79
2022/04/16 10:24:59;;;;;;;5.65;3.45;;;9.30;96.80;;;;;;5055962;28;20059;-78
2022/04/16 10:27:32;;;;;;;6.03;3.60;;;9.40;94.70;;;;;;5055765;28;20089;-79
2022/04/16 10:30:00;;;;;;;7.10;3.38;;;9.40;95.10;;;;;;5055450;28;20067;-78
2022/04/16 10:32:38;;;;;;;7.45;4.55;;;9.40;95.70;;;;;;5055704;28;20025;-78
2022/04/16 10:35:05;;;;;;;6.88;4.05;;;9.40;96.00;;;;;;5055304;28;20044;-78
2022/04/16 10:37:38;;;;;;;5.72;3.97;;;9.40;96.30;;;;;;5055829;28;20061;-78
2022/04/16 10:40:25;;;;;;;6.00;4.10;;;9.30;96.60;;;;;;5055585;28;20029;-78
2022/04/16 10:43:01;;;;;;;8.23;4.90;;;9.30;96.30;;;;;;5054490;28;20032;-78
2022/04/16 10:45:27;;;;;;;6.60;4.32;;;9.20;97.30;;;;;;5054963;28;20138;-78
2022/04/16 10:47:56;;;;;;;6.80;4.32;;;9.10;97.80;;;;;;5054474;28;20385;-78
2022/04/16 10:50:22;;;;;;;6.70;4.32;;;9.00;97.40;;;;;;5055621;28;20067;-78
2022/04/16 10:53:06;;;;;;;6.13;4.13;;;8.90;97.30;;;;;;5055439;28;20021;-78
2022/04/16 10:55:32;;;;;;;7.35;4.93;;;8.80;98.00;;;;;;5055210;28;20021;-78
2022/04/16 10:58:05;;;;;;;7.82;4.88;;;8.70;98.70;;;;;;5055419;28;20021;-77
2022/04/16 11:00:44;;;;;;;8.02;5.55;;;8.50;98.20;;;;;;5055882;28;20028;-78
2022/04/16 11:03:12;;;;;;;7.03;4.80;;;8.40;99.40;;;;;;5055692;28;20021;-78
2022/04/16 11:05:41;;;;;;;6.72;4.25;;;8.30;99.30;;;;;;5054145;28;20033;-78
2022/04/16 11:08:08;;;;;;;7.53;5.13;;;8.20;98.70;;;;;;5055588;28;20021;-78
2022/04/16 11:10:34;;;;;;;7.25;5.10;;;8.20;99.80;;;;;;5055416;28;20481;-78
2022/04/16 11:13:01;;;;;;;7.13;4.93;;;8.10;99.70;;;;;;5053796;28;20025;-78
2022/04/16 11:15:28;;;;;;;8.73;5.32;;;8.10;99.80;;;;;;5055080;28;20025;-78
2022/04/16 11:17:58;;;;;;;8.05;6.07;;;8.00;99.90;;;;;;5055558;28;20521;-78
2022/04/16 11:20:26;;;;;;;9.45;6.70;;;8.00;99.90;;;;;;5055399;28;20013;-78
2022/04/16 11:22:52;;;;;;;7.60;5.63;;;8.00;99.90;;;;;;5053963;28;20107;-78
2022/04/16 11:25:22;;;;;;;7.80;4.88;;;8.00;99.90;;;;;;5055069;28;20060;-78
2022/04/16 11:36:08;;;;;;;6.97;4.45;;;7.90;99.90;;;;;;5055838;28;20390;-77
2022/04/16 11:38:37;;;;;;;7.38;4.97;;;7.90;99.70;;;;;;5053531;28;20025;-78
2022/04/16 11:41:06;;;;;;;8.38;4.90;;;7.90;99.90;;;;;;5054859;28;20029;-78
2022/04/16 11:43:33;;;;;;;6.57;4.80;;;7.80;99.90;;;;;;5054905;28;20044;-77
2022/04/16 11:46:00;;;;;;;8.02;5.93;;;7.80;99.90;;;;;;5053586;28;20029;-78
2022/04/16 11:48:26;;;;;;;7.82;5.00;;;7.80;99.90;;;;;;5055131;28;20021;-77
2022/04/16 11:50:52;;;;;;;8.35;5.53;;;7.80;99.90;;;;;;5055308;28;20067;-78
2022/04/16 11:53:18;;;;;;;9.23;5.65;;;7.80;99.90;;;;;;5054832;28;20033;-78
2022/04/16 11:55:45;;;;;;;7.45;4.90;;;7.80;99.90;;;;;;5054512;28;20092;-78
2022/04/16 11:58:12;;;;;;;9.68;5.22;;;7.90;99.90;;;;;;5054947;28;20021;-78
2022/04/16 12:00:48;;;;;;;7.70;4.97;;;8.00;99.90;;;;;;5054338;28;20025;-78
2022/04/16 12:03:14;;;;;;;;;;;8.00;99.90;;;;;;5053024;28;20025;-78
2022/04/16 12:05:42;;;;;;;;;;;8.00;99.90;;;;;;5053323;28;19909;-78
2022/04/16 12:08:09;;;;;;;;;;;8.10;99.90;;;;;;5053035;28;19913;-78
2022/04/16 12:10:36;;;;;;;10.05;5.10;;;8.20;99.80;;;;;;5053376;28;19904;-78
2022/04/16 12:13:15;;;;;;;;;;;8.20;99.90;;;;;;5053886;28;20028;-78
2022/04/16 12:15:41;;;;;;;;;;;8.20;99.90;;;;;;5053449;28;19957;-78
2022/04/16 12:18:10;;;;;;;;;;;8.30;99.90;;;;;;5054460;28;20015;-78
2022/04/16 12:20:40;;;;;;;;;;;8.30;99.90;;;;;;5054654;28;20291;-78
2022/04/16 12:23:05;;;;;;;;;;;8.40;99.90;;;;;;5054351;28;20440;-78
2022/04/16 12:25:31;;;;;;;;;;;8.50;99.00;;;;;;5054322;28;19948;-78
2022/04/16 12:27:57;;;;;;;;;;;8.50;99.30;;;;;;5052839;28;19948;-78
2022/04/16 12:30:24;;;;;;;;;;;8.50;99.90;;;;;;5053986;28;19904;-78
2022/04/16 12:33:12;;;;;;;;;;;8.60;98.80;;;;;;5054629;28;20010;-78
2022/04/16 12:35:39;;;;;;;;;;;8.60;98.80;;;;;;5054219;28;19947;-78
2022/04/16 12:38:05;;;;;;;;;;;8.60;98.30;;;;;;5054343;28;19904;-78
2022/04/16 12:40:31;;;;;;;;;;;8.70;98.80;;;;;;5054081;28;19996;-78
2022/04/16 12:42:58;;;;;;;;;;;8.80;99.40;;;;;;5055129;28;19999;-78
2022/04/16 12:45:36;;;;;;;;;;;8.90;98.20;;;;;;5054021;28;19911;-78
2022/04/16 12:48:01;;;;;;;;;;;9.10;98.80;;;;;;5054155;28;20415;-78
2022/04/16 12:50:31;;;;;;;;;;;9.20;98.60;;;;;;5054315;28;19909;-79
2022/04/16 12:52:57;;;;;;;;;;;9.50;97.30;;;;;;5054658;28;19913;-78
2022/04/16 12:55:22;;;;;;;;;;;9.60;97.70;;;;;;5054227;28;19912;-79
2022/04/16 12:57:48;;;;;;;;;;;9.70;97.40;;;;;;5053708;28;19955;-79
2022/04/16 13:00:14;;;;;;;;;;;9.80;97.10;;;;;;5052470;28;19959;-78
2022/04/16 13:02:44;;;;;;;;;;;9.80;95.80;;;;;;5052656;28;19912;-79
2022/04/16 13:05:10;;;;;;;;;;;9.80;96.40;;;;;;5053746;28;19964;-79
2022/04/16 13:07:36;;;;;;;;;;;9.70;96.40;;;;;;5056469;28;19905;-78
2022/04/16 13:10:06;;;;;;;;;;;9.60;96.70;;;;;;5056350;28;20365;-79
2022/04/16 13:12:33;;;;;;;;;;;9.60;96.40;;;;;;5057474;28;20010;-79
2022/04/16 13:14:58;;;;;;;;;;;9.50;96.20;;;;;;5057712;28;19928;-79
2022/04/16 13:17:24;;;;;;;;;;;9.50;97.10;;;;;;5057845;28;19904;-78
2022/04/16 13:19:50;;;;;;;;;;;9.50;97.90;;;;;;5057646;28;19905;-78
2022/04/16 13:22:15;;;;;;;;;;;9.50;97.80;;;;;;5057341;28;19912;-78
2022/04/16 13:24:41;;;;;;;;;;;9.40;96.70;;;;;;5057366;28;20277;-78
2022/04/16 13:27:07;;;;;;;;;;;9.30;97.70;;;;;;5057344;28;19975;-79
2022/04/16 13:29:33;;;;;;;;;;;9.20;98.70;;;;;;5057020;28;19904;-78
2022/04/16 13:32:02;;;;;;;;;;;9.10;99.10;;;;;;5057819;28;19904;-78
2022/04/16 13:34:28;;;;;;;;;;;9.00;99.90;;;;;;5057345;28;19964;-78